createdAt,value
2022-09-20T00:00:30.280Z,7.36
2022-09-20T00:03:03.412Z,7.34
2022-09-20T00:05:52.281Z,7.33
2022-09-20T00:08:32.268Z,7.31
2022-09-20T00:11:32.261Z,7.27
2022-09-20T00:14:20.272Z,7.28
2022-09-20T00:16:53.468Z,7.26
2022-09-20T00:19:40.284Z,7.26
2022-09-20T00:22:20.282Z,7.25
2022-09-20T00:25:07.287Z,7.23
2022-09-20T00:27:40.656Z,7.21
2022-09-20T00:30:27.275Z,7.21
2022-09-20T00:33:07.294Z,7.22
2022-09-20T00:36:01.280Z,7.21
2022-09-20T00:38:55.289Z,7.22
2022-09-20T00:41:42.286Z,7.22
2022-09-20T00:44:47.725Z,7.23
2022-09-20T00:47:43.291Z,7.24
2022-09-20T00:50:42.291Z,7.24
2022-09-20T00:53:44.291Z,7.23
2022-09-20T00:56:40.286Z,7.22
2022-09-20T00:59:32.426Z,7.23
2022-09-20T01:02:25.361Z,7.22
2022-09-20T01:04:59.408Z,7.21
2022-09-20T01:07:48.294Z,7.22
2022-09-20T01:10:21.435Z,7.22
2022-09-20T01:13:08.297Z,7.22
2022-09-20T01:15:44.386Z,7.24
2022-09-20T01:18:32.299Z,7.24
2022-09-20T01:21:14.321Z,7.22
2022-09-20T01:24:15.304Z,7.23
2022-09-20T01:26:57.630Z,7.21
2022-09-20T01:30:10.327Z,7.21
2022-09-20T01:32:57.451Z,7.21
2022-09-20T01:35:47.292Z,7.19
2022-09-20T01:38:27.338Z,7.17
2022-09-20T01:41:52.306Z,7.19
2022-09-20T01:44:46.520Z,7.19
2022-09-20T01:47:42.422Z,7.19
2022-09-20T01:50:49.315Z,7.17
2022-09-20T01:53:43.318Z,7.16
2022-09-20T01:57:12.315Z,7.13
2022-09-20T02:00:02.310Z,7.15
2022-09-20T02:03:12.458Z,7.12
2022-09-20T02:06:29.317Z,7.12
2022-09-20T02:09:28.327Z,7.15
2022-09-20T02:12:49.319Z,7.17
2022-09-20T02:15:58.342Z,7.17
2022-09-20T02:19:12.330Z,7.19
2022-09-20T02:22:05.339Z,7.20
2022-09-20T02:24:59.456Z,7.19
2022-09-20T02:28:00.324Z,7.18
2022-09-20T02:31:03.337Z,7.19
2022-09-20T02:34:51.310Z,7.20
2022-09-20T02:37:48.340Z,7.21
2022-09-20T02:41:13.312Z,7.22
2022-09-20T02:44:20.334Z,7.23
2022-09-20T02:47:41.321Z,7.22
2022-09-20T02:50:56.340Z,7.22
2022-09-20T02:54:12.329Z,7.24
2022-09-20T02:57:40.341Z,7.25
2022-09-20T03:00:31.347Z,7.26
2022-09-20T03:03:43.349Z,7.26
2022-09-20T03:06:45.342Z,7.27
2022-09-20T03:09:58.340Z,7.30
2022-09-20T03:12:57.351Z,7.31
2022-09-20T03:15:43.444Z,7.32
2022-09-20T03:18:36.348Z,7.34
2022-09-20T03:21:25.357Z,7.34
2022-09-20T03:24:37.349Z,7.37
2022-09-20T03:28:12.362Z,7.39
2022-09-20T03:31:30.395Z,7.39
2022-09-20T03:34:42.377Z,7.36
2022-09-20T03:37:37.357Z,7.38
2022-09-20T03:40:37.436Z,7.38
2022-09-20T03:44:00.366Z,7.39
2022-09-20T03:46:52.387Z,7.40
2022-09-20T03:49:55.467Z,7.37
2022-09-20T03:53:01.352Z,7.39
2022-09-20T03:56:02.368Z,7.39
2022-09-20T03:59:14.362Z,7.38
2022-09-20T04:02:23.411Z,7.39
2022-09-20T04:05:26.351Z,7.41
2022-09-20T04:08:43.377Z,7.43
2022-09-20T04:11:42.369Z,7.42
2022-09-20T04:14:31.476Z,7.42
2022-09-20T04:17:33.359Z,7.40
2022-09-20T04:20:12.492Z,7.40
2022-09-20T04:23:01.381Z,7.42
2022-09-20T04:25:45.480Z,7.43
2022-09-20T04:28:38.380Z,7.45
2022-09-20T04:31:54.271Z,7.49
2022-09-20T04:35:14.399Z,7.50
2022-09-20T04:38:12.386Z,7.51
2022-09-20T04:41:32.402Z,7.53
2022-09-20T04:44:38.374Z,7.51
2022-09-20T04:47:21.411Z,7.53
2022-09-20T04:51:07.375Z,7.56
2022-09-20T04:54:18.388Z,7.58
2022-09-20T04:56:52.271Z,7.58
2022-09-20T04:59:42.395Z,7.58
2022-09-20T05:02:54.479Z,7.58
2022-09-20T05:06:02.396Z,7.58
2022-09-20T05:08:59.011Z,7.57
2022-09-20T05:11:50.408Z,7.58
2022-09-20T05:14:52.405Z,7.59
2022-09-20T05:17:53.413Z,7.60
2022-09-20T05:20:45.766Z,7.62
2022-09-20T05:23:51.407Z,7.64
2022-09-20T05:26:51.419Z,7.66
2022-09-20T05:30:08.401Z,7.69
2022-09-20T05:33:12.414Z,7.69
2022-09-20T05:36:05.408Z,7.70
2022-09-20T05:39:03.519Z,7.72
2022-09-20T05:42:03.418Z,7.74
2022-09-20T05:45:01.676Z,7.73
2022-09-20T05:47:51.398Z,7.76
2022-09-20T05:50:35.508Z,7.79
2022-09-20T05:53:22.417Z,7.82
2022-09-20T05:56:07.416Z,7.86
2022-09-20T05:59:15.535Z,7.91
2022-09-20T06:02:33.427Z,7.97
2022-09-20T06:05:24.392Z,8.00
2022-09-20T06:08:22.408Z,8.04
2022-09-20T06:11:27.430Z,8.08
2022-09-20T06:14:51.427Z,8.13
2022-09-20T06:18:20.426Z,8.16
2022-09-20T06:21:38.418Z,8.22
2022-09-20T06:24:24.522Z,8.25
2022-09-20T06:27:17.428Z,8.28
2022-09-20T06:29:57.590Z,8.33
2022-09-20T06:33:02.429Z,8.36
2022-09-20T06:35:48.536Z,8.40
2022-09-20T06:39:22.438Z,8.44
2022-09-20T06:42:17.425Z,8.47
2022-09-20T06:45:04.445Z,8.48
2022-09-20T06:47:38.916Z,8.49
2022-09-20T06:50:29.455Z,8.49
2022-09-20T06:53:02.904Z,8.52
2022-09-20T06:55:51.449Z,8.53
2022-09-20T06:58:24.611Z,8.55
2022-09-20T07:01:11.482Z,8.59
2022-09-20T07:03:44.544Z,8.60
2022-09-20T07:06:31.445Z,8.63
2022-09-20T07:09:04.556Z,8.65
2022-09-20T07:11:52.461Z,8.68
2022-09-20T07:14:32.431Z,8.68
2022-09-20T07:17:20.444Z,8.69
2022-09-20T07:20:00.446Z,8.71
2022-09-20T07:22:47.471Z,8.75
2022-09-20T07:25:30.457Z,8.76
2022-09-20T07:28:17.589Z,8.82
2022-09-20T07:30:54.568Z,8.88
2022-09-20T07:33:41.439Z,8.94
2022-09-20T07:36:16.585Z,9.00
2022-09-20T07:39:10.452Z,9.03
2022-09-20T07:42:04.466Z,9.08
2022-09-20T07:44:51.461Z,9.11
2022-09-20T07:47:34.491Z,9.13
2022-09-20T07:50:25.456Z,9.15
2022-09-20T07:52:58.643Z,9.18
2022-09-20T07:55:45.487Z,9.19
2022-09-20T07:58:18.631Z,9.18
2022-09-20T08:01:07.539Z,9.19
2022-09-20T08:03:49.473Z,9.19
2022-09-20T08:06:36.466Z,9.20
2022-09-20T08:09:11.365Z,9.18
2022-09-20T08:11:58.484Z,9.19
2022-09-20T08:14:31.584Z,9.19
2022-09-20T08:17:18.473Z,9.18
2022-09-20T08:19:53.335Z,9.18
2022-09-20T08:22:41.486Z,9.16
2022-09-20T08:25:21.480Z,9.16
2022-09-20T08:28:08.484Z,9.15
2022-09-20T08:30:41.758Z,9.16
2022-09-20T08:33:28.492Z,9.17
2022-09-20T08:36:01.662Z,9.17
2022-09-20T08:41:57.508Z,9.16
2022-09-20T08:45:01.480Z,9.16
2022-09-20T08:48:03.482Z,9.18
2022-09-20T08:50:57.495Z,9.19
2022-09-20T08:53:58.496Z,9.19
2022-09-20T08:56:45.491Z,9.19
2022-09-20T08:59:25.449Z,9.17
2022-09-20T09:02:27.537Z,9.14
2022-09-20T09:05:00.571Z,9.12
2022-09-20T09:07:47.506Z,9.09
2022-09-20T09:10:27.493Z,9.04
2022-09-20T09:13:21.539Z,9.04
2022-09-20T09:16:25.707Z,9.03
2022-09-20T09:19:34.062Z,9.02
2022-09-20T09:22:10.609Z,8.99
2022-09-20T09:25:27.532Z,8.99
2022-09-20T09:28:08.646Z,8.98
2022-09-20T09:30:55.487Z,8.94
2022-09-20T09:33:37.383Z,8.90
2022-09-20T09:36:31.503Z,8.86
2022-09-20T09:39:30.524Z,8.84
2022-09-20T09:42:35.512Z,8.83
2022-09-20T09:45:42.550Z,8.80
2022-09-20T09:48:30.505Z,8.78
2022-09-20T09:51:24.541Z,8.76
2022-09-20T09:54:22.527Z,8.74
2022-09-20T09:57:38.537Z,8.72
2022-09-20T10:00:29.520Z,8.71
2022-09-20T10:03:50.512Z,8.72
2022-09-20T10:06:52.362Z,8.72
2022-09-20T10:09:33.621Z,8.76
2022-09-20T10:12:33.538Z,8.78
2022-09-20T10:15:26.834Z,8.83
2022-09-20T10:18:34.546Z,8.84
2022-09-20T10:21:13.664Z,8.87
2022-09-20T10:24:25.543Z,8.88
2022-09-20T10:27:25.518Z,8.89
2022-09-20T10:30:30.587Z,8.89
2022-09-20T10:33:32.538Z,8.93
2022-09-20T10:36:15.630Z,8.96
2022-09-20T10:39:35.535Z,9.03
2022-09-20T10:43:09.522Z,9.03
2022-09-20T10:46:40.578Z,9.02
2022-09-20T10:49:56.552Z,9.02
2022-09-20T10:52:43.535Z,9.01
2022-09-20T10:55:59.549Z,9.03
2022-09-20T10:58:53.577Z,9.04
2022-09-20T11:02:08.634Z,9.04
2022-09-20T11:05:19.545Z,9.04
2022-09-20T11:08:21.554Z,9.07
2022-09-20T11:11:23.568Z,9.08
2022-09-20T11:14:20.538Z,9.09
2022-09-20T11:17:10.609Z,9.10
2022-09-20T11:20:07.483Z,9.12
2022-09-20T11:22:57.568Z,9.13
2022-09-20T11:26:20.567Z,9.13
2022-09-20T11:29:36.568Z,9.15
2022-09-20T11:32:31.564Z,9.13
2022-09-20T11:35:25.563Z,9.16
2022-09-20T11:38:20.565Z,9.17
2022-09-20T11:41:02.650Z,9.20
2022-09-20T11:43:51.588Z,9.23
2022-09-20T11:46:41.562Z,9.27
2022-09-20T11:49:53.581Z,9.29
2022-09-20T11:53:11.303Z,9.32
2022-09-20T11:56:05.597Z,9.36
2022-09-20T11:58:59.575Z,9.39
2022-09-20T12:01:56.657Z,9.40
2022-09-20T12:04:44.609Z,9.39
2022-09-20T12:07:26.662Z,9.36
2022-09-20T12:10:31.581Z,9.33
2022-09-20T12:13:11.664Z,9.25
2022-09-20T12:16:27.638Z,9.20
2022-09-20T12:19:00.969Z,9.19
2022-09-20T12:22:10.603Z,9.16
2022-09-20T12:24:52.585Z,9.14
2022-09-20T12:27:46.602Z,9.13
2022-09-20T12:30:33.585Z,9.13
2022-09-20T12:33:06.668Z,9.12
2022-09-20T12:36:06.602Z,9.12
2022-09-20T12:38:43.677Z,9.11
2022-09-20T12:41:30.587Z,9.08
2022-09-20T12:44:34.605Z,9.06
2022-09-20T12:47:30.616Z,9.04
2022-09-20T12:50:25.288Z,9.04
2022-09-20T12:53:20.585Z,9.02
2022-09-20T12:56:00.178Z,9.03
2022-09-20T12:59:01.651Z,9.02
2022-09-20T13:01:38.274Z,9.03
2022-09-20T13:05:02.591Z,9.07
2022-09-20T13:07:48.613Z,9.12
2022-09-20T13:10:38.614Z,9.14
2022-09-20T13:13:22.787Z,9.15
2022-09-20T13:16:12.634Z,9.15
2022-09-20T13:18:47.348Z,9.11
2022-09-20T13:21:41.607Z,9.08
2022-09-20T13:24:37.619Z,9.08
2022-09-20T13:27:45.620Z,9.05
2022-09-20T13:30:42.603Z,9.03
2022-09-20T13:33:31.616Z,9.00
2022-09-20T13:36:04.715Z,8.96
2022-09-20T13:38:58.930Z,8.93
2022-09-20T13:41:45.616Z,8.92
2022-09-20T13:44:25.494Z,8.90
2022-09-20T13:47:30.632Z,8.91
2022-09-20T13:50:46.364Z,8.90
2022-09-20T13:53:42.066Z,8.90
2022-09-20T13:56:28.526Z,8.89
2022-09-20T13:59:23.635Z,8.89
2022-09-20T14:01:59.763Z,8.89
2022-09-20T14:04:47.637Z,8.90
2022-09-20T14:07:28.644Z,8.92
2022-09-20T14:10:50.638Z,8.94
2022-09-20T14:13:45.625Z,8.97
2022-09-20T14:16:26.638Z,8.97
2022-09-20T14:19:14.633Z,8.99
2022-09-20T14:21:55.626Z,8.99
2022-09-20T14:24:43.648Z,9.00
2022-09-20T14:27:32.651Z,9.00
2022-09-20T14:30:47.644Z,9.01
2022-09-20T14:33:41.661Z,8.99
2022-09-20T14:36:31.638Z,9.01
2022-09-20T14:39:09.745Z,9.01
2022-09-20T14:41:57.654Z,9.02
2022-09-20T14:44:40.681Z,9.02
2022-09-20T14:47:45.650Z,9.02
2022-09-20T14:50:56.657Z,9.01
2022-09-20T14:53:44.651Z,8.97
2022-09-20T14:56:27.642Z,8.97
2022-09-20T14:59:30.686Z,8.95
2022-09-20T15:02:27.674Z,8.94
2022-09-20T15:05:36.689Z,8.93
2022-09-20T15:08:31.650Z,8.91
2022-09-20T15:11:21.655Z,8.88
2022-09-20T15:13:54.867Z,8.88
2022-09-20T15:16:41.778Z,8.89
2022-09-20T15:19:15.946Z,8.87
2022-09-20T15:22:02.658Z,8.86
2022-09-20T15:24:42.669Z,8.86
2022-09-20T15:27:36.660Z,8.82
2022-09-20T15:30:26.678Z,8.81
2022-09-20T15:33:06.669Z,8.81
2022-09-20T15:36:01.661Z,8.80
2022-09-20T15:38:48.674Z,8.80
2022-09-20T15:41:21.779Z,8.77
2022-09-20T15:44:10.678Z,8.76
2022-09-20T15:46:43.771Z,8.75
2022-09-20T15:49:30.691Z,8.72
2022-09-20T15:52:03.854Z,8.68
2022-09-20T15:54:50.673Z,8.66
2022-09-20T15:57:23.777Z,8.65
2022-09-20T16:00:10.663Z,8.64
2022-09-20T16:02:43.822Z,8.61
2022-09-20T16:05:30.687Z,8.61
2022-09-20T16:08:11.678Z,8.59
2022-09-20T16:11:12.676Z,8.58
2022-09-20T16:14:04.682Z,8.56
2022-09-20T16:16:40.842Z,8.56
2022-09-20T16:19:27.671Z,8.54
2022-09-20T16:22:02.858Z,8.52
2022-09-20T16:24:49.689Z,8.52
2022-09-20T16:27:29.685Z,8.53
2022-09-20T16:30:16.692Z,8.54
2022-09-20T16:32:57.703Z,8.54
2022-09-20T16:35:51.697Z,8.53
2022-09-20T16:38:38.713Z,8.52
2022-09-20T16:41:11.951Z,8.50
2022-09-20T16:43:59.690Z,8.49
2022-09-20T16:46:32.898Z,8.52
2022-09-20T16:49:19.715Z,8.54
2022-09-20T16:51:52.783Z,8.52
2022-09-20T16:54:40.724Z,8.52
2022-09-20T16:57:20.711Z,8.49
2022-09-20T17:00:07.696Z,8.45
2022-09-20T17:02:44.600Z,8.41
2022-09-20T17:05:33.692Z,8.37
2022-09-20T17:08:13.724Z,8.33
2022-09-20T17:11:06.908Z,8.30
2022-09-20T17:13:41.444Z,8.27
2022-09-20T17:16:29.737Z,8.22
2022-09-20T17:19:08.997Z,8.20
2022-09-20T17:21:56.731Z,8.18
2022-09-20T17:24:30.266Z,8.13
2022-09-20T17:27:16.727Z,8.08
2022-09-20T17:29:49.816Z,8.03
2022-09-20T17:32:36.719Z,8.00
2022-09-20T17:35:17.735Z,7.95
2022-09-20T17:38:04.713Z,7.92
2022-09-20T17:40:37.954Z,7.89
2022-09-20T17:43:24.740Z,7.85
2022-09-20T17:46:05.705Z,7.83
2022-09-20T17:48:56.728Z,7.79
2022-09-20T17:51:40.722Z,7.76
2022-09-20T17:54:35.723Z,7.69
2022-09-20T17:57:22.735Z,7.67
2022-09-20T17:59:55.924Z,7.70
2022-09-20T18:02:42.724Z,7.70
2022-09-20T18:05:22.722Z,7.70
2022-09-20T18:08:16.743Z,7.68
2022-09-20T18:11:05.778Z,7.66
2022-09-20T18:13:38.910Z,7.63
2022-09-20T18:16:25.776Z,7.65
2022-09-20T18:19:09.747Z,7.65
2022-09-20T18:21:57.742Z,7.64
2022-09-20T18:24:37.766Z,7.63
2022-09-20T18:27:31.762Z,7.68
2022-09-20T18:30:27.743Z,7.72
2022-09-20T18:33:21.778Z,7.71
2022-09-20T18:36:17.763Z,7.72
2022-09-20T18:39:12.773Z,7.76
2022-09-20T18:42:07.744Z,7.75
2022-09-20T18:45:01.769Z,7.73
2022-09-20T18:47:50.755Z,7.67
2022-09-20T18:50:32.745Z,7.65
2022-09-20T18:53:19.751Z,7.62
2022-09-20T18:55:53.890Z,7.59
2022-09-20T18:58:41.789Z,7.59
2022-09-20T19:01:53.915Z,7.57
2022-09-20T19:05:18.790Z,7.56
2022-09-20T19:08:44.756Z,7.54
2022-09-20T19:11:39.760Z,7.50
2022-09-20T19:14:30.773Z,7.49
2022-09-20T19:17:22.757Z,7.51
2022-09-20T19:20:05.769Z,7.50
2022-09-20T19:23:31.757Z,7.50
2022-09-20T19:26:27.795Z,7.50
2022-09-20T19:29:07.684Z,7.53
2022-09-20T19:32:11.787Z,7.55
2022-09-20T19:35:07.771Z,7.55
2022-09-20T19:38:21.782Z,7.53
2022-09-20T19:41:29.776Z,7.49
2022-09-20T19:44:54.783Z,7.44
2022-09-20T19:48:19.774Z,7.40
2022-09-20T19:51:03.775Z,7.35
2022-09-20T19:53:57.778Z,7.30
2022-09-20T19:57:00.792Z,7.24
2022-09-20T19:59:34.938Z,7.22
2022-09-20T20:02:21.782Z,7.20
2022-09-20T20:04:54.924Z,7.19
2022-09-20T20:07:48.786Z,7.16
2022-09-20T20:10:41.798Z,7.10
2022-09-20T20:13:59.793Z,7.04
2022-09-20T20:16:53.801Z,7.03
2022-09-20T20:19:57.786Z,7.00
2022-09-20T20:23:15.812Z,6.98
2022-09-20T20:26:22.791Z,6.97
2022-09-20T20:29:11.798Z,6.96
2022-09-20T20:31:45.030Z,6.97
2022-09-20T20:34:32.784Z,6.96
2022-09-20T20:37:05.913Z,6.93
2022-09-20T20:40:00.851Z,6.95
2022-09-20T20:42:48.810Z,7.02
2022-09-20T20:45:22.040Z,7.05
2022-09-20T20:48:08.793Z,7.04
2022-09-20T20:50:41.895Z,7.05
2022-09-20T20:53:29.811Z,7.07
2022-09-20T20:56:19.812Z,7.14
2022-09-20T20:59:13.821Z,7.15
2022-09-20T21:02:08.190Z,7.19
2022-09-20T21:04:54.806Z,7.22
2022-09-20T21:07:34.801Z,7.22
2022-09-20T21:10:21.830Z,7.23
2022-09-20T21:13:01.823Z,7.26
2022-09-20T21:15:55.866Z,7.29
2022-09-20T21:18:43.803Z,7.36
2022-09-20T21:21:27.906Z,7.40
2022-09-20T21:24:16.811Z,7.41
2022-09-20T21:26:56.805Z,7.42
2022-09-20T21:29:43.824Z,7.46
2022-09-20T21:32:23.807Z,7.48
2022-09-20T21:35:10.856Z,7.50
2022-09-20T21:37:50.825Z,7.48
2022-09-20T21:40:44.839Z,7.50
2022-09-20T21:43:32.823Z,7.52
2022-09-20T21:46:05.959Z,7.52
2022-09-20T21:48:53.898Z,7.56
2022-09-20T21:51:29.856Z,7.57
2022-09-20T21:54:17.867Z,7.59
2022-09-20T21:56:52.949Z,7.61
2022-09-20T21:59:39.821Z,7.59
2022-09-20T22:02:13.017Z,7.59
2022-09-20T22:04:59.833Z,7.59
2022-09-20T22:07:39.857Z,7.60
2022-09-20T22:10:27.850Z,7.61
2022-09-20T22:13:00.930Z,7.59
2022-09-20T22:15:47.881Z,7.56
2022-09-20T22:18:27.833Z,7.52
2022-09-20T22:21:29.861Z,7.55
2022-09-20T22:24:25.837Z,7.55
2022-09-20T22:27:19.843Z,7.58
2022-09-20T22:30:06.833Z,7.58
2022-09-20T22:32:39.935Z,7.58
2022-09-20T22:35:26.849Z,7.59
2022-09-20T22:38:00.026Z,7.60
2022-09-20T22:40:53.855Z,7.60
2022-09-20T22:43:41.841Z,7.59
2022-09-20T22:46:33.871Z,7.57
2022-09-20T22:49:27.864Z,7.57
2022-09-20T22:52:21.865Z,7.57
2022-09-20T22:55:08.847Z,7.56
2022-09-20T22:57:41.957Z,7.53
2022-09-20T23:00:28.850Z,7.54
2022-09-20T23:03:05.944Z,7.52
2022-09-20T23:05:52.865Z,7.53
2022-09-20T23:08:25.953Z,7.52
2022-09-20T23:11:12.915Z,7.51
2022-09-20T23:13:52.863Z,7.51
2022-09-20T23:16:41.928Z,7.48
2022-09-20T23:19:16.100Z,7.49
2022-09-20T23:22:02.860Z,7.48
2022-09-20T23:24:42.853Z,7.47
2022-09-20T23:27:29.880Z,7.48
2022-09-20T23:30:02.995Z,7.49
2022-09-20T23:32:49.889Z,7.52
2022-09-20T23:35:22.953Z,7.53
2022-09-20T23:38:09.894Z,7.53
2022-09-20T23:40:49.891Z,7.55
2022-09-20T23:43:36.854Z,7.55
2022-09-20T23:46:12.062Z,7.52
2022-09-20T23:48:59.891Z,7.51
2022-09-20T23:51:34.137Z,7.51
2022-09-20T23:54:20.885Z,7.52
2022-09-20T23:57:00.881Z,7.55
2022-09-20T23:59:54.887Z,7.59
